Time;durP1;ratioP1;P1;durP2;ratioP2;P2;SDS_P1;SDS_P2;PMS_P1;PMS_P2;Temp;Humidity;BMP_temperature;BMP_pressure;BME280_temperature;BME280_humidity;BME280_pressure;Samples;Min_cycle;Max_cycle;Signal;HPM_P1;HPM_P2
2022/12/10 00:01:13;;;;;;;;;;;6.40;95.70;;;;;;5075982;28;19964;-88
2022/12/10 00:03:39;;;;;;;;;;;6.40;95.80;;;;;;5065154;28;20001;-88
2022/12/10 00:06:06;;;;;;;;;;;6.40;95.90;;;;;;5056064;28;19950;-88
2022/12/10 00:08:32;;;;;;;;;;;6.50;95.90;;;;;;5055710;28;19938;-89
2022/12/10 00:10:58;;;;;;;;;;;6.40;95.80;;;;;;5055670;28;20306;-88
2022/12/10 00:13:24;;;;;;;;;;;6.40;95.90;;;;;;5055599;28;19959;-89
2022/12/10 00:15:49;;;;;;;;;;;6.40;95.80;;;;;;5055600;28;19945;-88
2022/12/10 00:18:15;;;;;;;;;;;6.50;95.80;;;;;;5055558;28;19941;-89
2022/12/10 00:20:40;;;;;;;;;;;6.50;95.80;;;;;;5055315;28;20508;-89
2022/12/10 00:23:06;;;;;;;;;;;6.50;95.70;;;;;;5059386;28;19943;-88
2022/12/10 00:25:32;;;;;;;;;;;6.50;95.60;;;;;;5074176;28;19941;-88
2022/12/10 00:27:58;;;;;;;;;;;6.50;95.60;;;;;;5075407;28;19949;-88
2022/12/10 00:30:23;;;;;;;;;;;6.50;95.60;;;;;;5075384;28;19938;-88
2022/12/10 00:32:49;;;;;;;;;;;6.50;95.60;;;;;;5075227;28;20411;-88
2022/12/10 00:35:14;;;;;;;;;;;6.50;95.60;;;;;;5075293;28;19997;-88
2022/12/10 00:37:40;;;;;;;;;;;6.50;95.60;;;;;;5075235;28;20078;-88
2022/12/10 00:40:06;;;;;;;;;;;6.50;95.70;;;;;;5075209;28;19942;-88
2022/12/10 00:42:31;;;;;;;;;;;6.50;95.60;;;;;;5075136;28;19939;-88
2022/12/10 00:44:57;;;;;;;;;;;6.50;95.60;;;;;;5074298;28;19943;-88
2022/12/10 00:47:22;;;;;;;;;;;6.50;95.50;;;;;;5075087;28;19937;-88
2022/12/10 00:49:48;;;;;;;;;;;6.50;95.50;;;;;;5075014;28;20014;-88
2022/12/10 00:52:13;;;;;;;;;;;6.50;95.60;;;;;;5074890;28;20373;-89
2022/12/10 00:54:39;;;;;;;;;;;6.50;95.70;;;;;;5074670;28;20389;-88
2022/12/10 00:57:04;;;;;;;;;;;6.70;95.70;;;;;;5074918;28;20349;-88
2022/12/10 00:59:30;;;;;;;;;;;6.70;95.60;;;;;;5074786;28;19950;-89
2022/12/10 01:01:55;;;;;;;;;;;6.70;95.50;;;;;;5074749;28;20402;-88
2022/12/10 01:04:21;;;;;;;;;;;6.70;95.50;;;;;;5074632;28;19948;-89
2022/12/10 01:06:48;;;;;;;;;;;6.60;95.40;;;;;;5074656;28;19989;-88
2022/12/10 01:09:15;;;;;;;;;;;6.50;95.30;;;;;;5067196;28;19942;-88
2022/12/10 01:11:42;;;;;;;;;;;6.60;95.40;;;;;;5054566;28;19940;-89
2022/12/10 01:14:09;;;;;;;;;;;6.50;95.40;;;;;;5054385;28;20007;-88
2022/12/10 01:16:35;;;;;;;;;;;6.60;95.50;;;;;;5054477;28;19942;-88
2022/12/10 01:19:01;;;;;;;;;;;6.70;95.40;;;;;;5054416;28;20324;-88
2022/12/10 01:21:27;;;;;;;;;;;6.70;95.30;;;;;;5054264;28;19980;-88
2022/12/10 01:23:53;;;;;;;;;;;6.60;95.40;;;;;;5054295;28;20389;-88
2022/12/10 01:26:20;;;;;;;;;;;6.70;95.40;;;;;;5054300;28;19944;-88
2022/12/10 01:28:45;;;;;;;;;;;6.70;95.50;;;;;;5054153;28;19942;-88
2022/12/10 01:31:16;;;;;;;;;;;6.60;95.50;;;;;;5052896;28;20316;-88
2022/12/10 01:33:42;;;;;;;;;;;6.70;95.40;;;;;;5054058;28;20007;-88
2022/12/10 01:36:09;;;;;;;;;;;6.60;95.30;;;;;;5066207;28;19950;-89
2022/12/10 01:38:35;;;;;;;;;;;6.50;95.50;;;;;;5072445;28;19957;-88
2022/12/10 01:41:01;;;;;;;;;;;6.50;95.50;;;;;;5074010;28;19972;-89
2022/12/10 01:43:27;;;;;;;;;;;6.50;95.40;;;;;;5073937;28;20365;-89
2022/12/10 01:45:53;;;;;;;;;;;6.40;95.50;;;;;;5073959;28;19938;-89
2022/12/10 01:48:19;;;;;;;;;;;6.40;95.70;;;;;;5073877;28;19967;-89
2022/12/10 01:50:44;;;;;;;;;;;6.40;95.80;;;;;;5073817;28;19937;-88
2022/12/10 01:53:11;;;;;;;;;;;6.40;95.80;;;;;;5073521;28;19962;-88
2022/12/10 01:55:49;;;;;;;;;;;6.40;95.70;;;;;;5073722;28;19942;-89
2022/12/10 01:58:16;;;;;;;;;;;6.40;95.60;;;;;;5073740;28;19937;-89
2022/12/10 02:00:45;;;;;;;;;;;6.40;95.70;;;;;;5073654;28;19940;-88
2022/12/10 02:03:15;;;;;;;;;;;6.50;95.80;;;;;;5071436;28;20015;-88
2022/12/10 02:05:43;;;;;;;;;;;6.50;95.70;;;;;;5053578;28;19961;-89
2022/12/10 02:08:24;;;;;;;;;;;6.40;95.80;;;;;;5053531;28;20037;-88
2022/12/10 02:10:58;;;;;;;;;;;6.50;95.90;;;;;;5053442;28;20412;-89
2022/12/10 02:13:33;;;;;;;;;;;6.50;96.00;;;;;;5053373;28;19964;-88
2022/12/10 02:16:11;;;;;;;;;;;6.60;95.90;;;;;;5053431;28;19939;-89
2022/12/10 02:18:40;;;;;;;;;;;6.50;95.80;;;;;;5053336;28;19947;-88
2022/12/10 02:21:26;;;;;;;;;;;6.50;95.70;;;;;;5067062;22;20518;-89
2022/12/10 02:23:54;;;;;;;;;;;6.50;95.70;;;;;;5072459;28;19952;-88
2022/12/10 02:26:28;;;;;;;;;;;6.50;95.70;;;;;;5073267;28;19972;-88
2022/12/10 02:29:14;;;;;;;;;;;6.40;95.80;;;;;;5073472;28;19966;-88
2022/12/10 02:31:42;;;;;;;;;;;6.50;95.80;;;;;;5073102;28;19945;-88
2022/12/10 02:34:08;;;;;;;;;;;6.50;95.90;;;;;;5072953;28;20022;-89
2022/12/10 02:36:35;;;;;;;;;;;6.50;96.00;;;;;;5055215;28;20417;-88
2022/12/10 02:39:02;;;;;;;;;;;6.50;95.90;;;;;;5073089;28;19940;-88
2022/12/10 02:41:33;;;;;;;;;;;6.50;95.90;;;;;;5073092;28;20034;-88
2022/12/10 02:43:59;;;;;;;;;;;6.60;96.00;;;;;;5073030;28;19937;-88
2022/12/10 02:46:28;;;;;;;;;;;6.50;95.90;;;;;;5072778;28;19941;-88
2022/12/10 02:48:54;;;;;;;;;;;6.50;96.00;;;;;;5073016;28;19938;-88
2022/12/10 02:51:19;;;;;;;;;;;6.50;95.90;;;;;;5072789;28;20418;-89
2022/12/10 02:53:45;;;;;;;;;;;6.50;95.90;;;;;;5072730;28;19963;-89
2022/12/10 02:56:19;;;;;;;;;;;6.50;95.80;;;;;;5072929;28;19937;-88
2022/12/10 02:58:54;;;;;;;;;;;6.50;95.70;;;;;;5072914;28;19942;-88
2022/12/10 03:01:31;;;;;;;;;;;6.50;95.60;;;;;;5072932;28;19941;-88
2022/12/10 03:04:00;;;;;;;;;;;6.40;95.70;;;;;;5072835;28;19956;-88
2022/12/10 03:06:26;;;;;;;;;;;6.40;95.70;;;;;;5072818;28;20304;-88
2022/12/10 03:08:54;;;;;;;;;;;6.40;95.80;;;;;;5072830;28;19986;-88
2022/12/10 03:11:22;;;;;;;;;;;6.40;95.90;;;;;;5072809;28;20050;-88
2022/12/10 03:13:50;;;;;;;;;;;6.40;95.80;;;;;;5072743;28;19966;-89
2022/12/10 03:16:17;;;;;;;;;;;6.30;95.90;;;;;;5072783;28;19944;-89
2022/12/10 03:18:43;;;;;;;;;;;6.40;95.90;;;;;;5054806;28;19949;-88
2022/12/10 03:21:09;;;;;;;;;;;6.40;96.00;;;;;;5072229;28;20022;-88
2022/12/10 03:23:38;;;;;;;;;;;6.40;95.90;;;;;;5072664;28;20308;-88
2022/12/10 03:26:05;;;;;;;;;;;6.50;95.90;;;;;;5072596;28;20315;-88
2022/12/10 03:28:33;;;;;;;;;;;6.60;95.80;;;;;;5072591;28;20281;-88
2022/12/10 03:30:58;;;;;;;;;;;6.50;95.60;;;;;;5072608;28;20036;-88
2022/12/10 03:33:24;;;;;;;;;;;6.50;95.60;;;;;;5072562;28;20047;-88
2022/12/10 03:35:49;;;;;;;;;;;6.50;95.70;;;;;;5072430;28;19937;-88
2022/12/10 03:38:15;;;;;;;;;;;6.60;95.70;;;;;;5072611;28;19940;-89
2022/12/10 03:40:41;;;;;;;;;;;6.50;95.80;;;;;;5072349;28;20400;-88
2022/12/10 03:43:06;;;;;;;;;;;6.50;95.80;;;;;;5072554;28;19949;-88
2022/12/10 03:45:32;;;;;;;;;;;6.50;95.80;;;;;;5072480;28;19947;-89
2022/12/10 03:47:57;;;;;;;;;;;6.50;95.80;;;;;;5072479;28;19945;-88
2022/12/10 03:50:23;;;;;;;;;;;6.50;95.70;;;;;;5072493;28;19938;-88
2022/12/10 03:52:48;;;;;;;;;;;6.50;95.60;;;;;;5071723;28;20003;-88
2022/12/10 03:55:14;;;;;;;;;;;6.40;95.60;;;;;;5072094;28;19999;-88
2022/12/10 03:57:40;;;;;;;;;;;6.40;95.70;;;;;;5072634;28;19996;-89
2022/12/10 04:00:06;;;;;;;;;;;6.40;95.80;;;;;;5075155;28;20393;-88
2022/12/10 04:02:31;;;;;;;;;;;6.40;95.80;;;;;;5075709;28;20318;-88
2022/12/10 04:04:57;;;;;;;;;;;6.50;95.80;;;;;;5075852;28;19941;-88
2022/12/10 04:07:22;;;;;;;;;;;6.50;95.70;;;;;;5075807;28;19941;-88
2022/12/10 04:09:48;;;;;;;;;;;6.50;95.80;;;;;;5075779;28;19960;-88
2022/12/10 04:12:13;;;;;;;;;;;6.50;95.90;;;;;;5075716;28;19945;-88
2022/12/10 04:17:23;;;;;;;;;;;6.50;95.80;;;;;;5075962;28;20415;-89
2022/12/10 04:19:48;;;;;;;;;;;6.50;95.90;;;;;;5075574;28;19970;-88
2022/12/10 04:27:43;;;;;;;;;;;6.50;96.00;;;;;;5075505;28;20468;-88
2022/12/10 04:30:10;;;;;;;;;;;6.60;96.00;;;;;;5075640;28;19971;-89
2022/12/10 04:32:36;;;;;;;;;;;6.70;95.80;;;;;;5075361;28;19948;-89
2022/12/10 04:35:01;;;;;;;;;;;6.70;95.80;;;;;;5075252;28;19956;-88
2022/12/10 04:37:27;;;;;;;;;;;6.70;95.80;;;;;;5075248;28;19941;-88
2022/12/10 04:39:53;;;;;;;;;;;6.60;95.70;;;;;;5075209;28;19943;-88
2022/12/10 04:42:19;;;;;;;;;;;6.60;95.70;;;;;;5075139;28;19941;-89
2022/12/10 04:44:44;;;;;;;;;;;6.60;95.80;;;;;;5075133;28;20413;-89
2022/12/10 04:47:10;;;;;;;;;;;6.70;95.80;;;;;;5075083;28;19937;-88
2022/12/10 04:49:36;;;;;;;;;;;6.70;95.80;;;;;;5074775;28;19956;-88
2022/12/10 04:52:02;;;;;;;;;;;6.70;95.80;;;;;;5074716;28;19963;-88
2022/12/10 04:54:28;;;;;;;;;;;6.70;95.90;;;;;;5074740;28;19955;-88
2022/12/10 04:56:54;;;;;;;;;;;6.80;95.70;;;;;;5075127;28;19968;-89
2022/12/10 04:59:19;;;;;;;;;;;6.80;95.60;;;;;;5056834;28;19944;-88
2022/12/10 05:01:45;;;;;;;;;;;6.70;95.60;;;;;;5074375;28;20408;-89
2022/12/10 05:04:12;;;;;;;;;;;6.70;95.50;;;;;;5057034;28;19942;-89
2022/12/10 05:06:37;;;;;;;;;;;6.70;95.50;;;;;;5074628;28;19961;-89
2022/12/10 05:09:03;;;;;;;;;;;6.70;95.60;;;;;;5074070;28;20366;-89
2022/12/10 05:11:30;;;;;;;;;;;6.60;95.60;;;;;;5074381;28;19995;-88
2022/12/10 05:13:55;;;;;;;;;;;6.60;95.70;;;;;;5074476;28;19998;-89
2022/12/10 05:16:22;;;;;;;;;;;6.60;95.70;;;;;;5074423;28;20344;-88
2022/12/10 05:18:48;;;;;;;;;;;6.60;95.60;;;;;;5074106;28;19993;-89
2022/12/10 05:21:15;;;;;;;;;;;6.60;95.50;;;;;;5074201;28;20028;-89
2022/12/10 05:23:45;;;;;;;;;;;6.60;95.60;;;;;;5074581;28;19954;-88
2022/12/10 05:26:12;;;;;;;;;;;6.60;95.60;;;;;;5056253;28;19949;-88
2022/12/10 05:28:39;;;;;;;;;;;6.70;95.50;;;;;;5074213;28;19937;-88
2022/12/10 05:31:05;;;;;;;;;;;6.70;95.40;;;;;;5074193;28;19963;-89
2022/12/10 05:33:31;;;;;;;;;;;6.70;95.40;;;;;;5074089;28;20419;-88
2022/12/10 05:35:58;;;;;;;;;;;6.70;95.30;;;;;;5074135;28;19941;-89
2022/12/10 05:38:24;;;;;;;;;;;6.60;95.40;;;;;;5074021;28;19939;-88
2022/12/10 05:40:49;;;;;;;;;;;6.50;95.70;;;;;;5074029;28;19991;-88
2022/12/10 05:43:15;;;;;;;;;;;6.60;95.70;;;;;;5073967;28;19991;-88
2022/12/10 05:45:41;;;;;;;;;;;6.50;95.70;;;;;;5074190;28;20032;-89
2022/12/10 05:48:06;;;;;;;;;;;6.50;95.80;;;;;;5073874;28;20072;-89
2022/12/10 05:50:32;;;;;;;;;;;6.50;95.80;;;;;;5073534;28;20039;-88
2022/12/10 05:52:57;;;;;;;;;;;6.50;96.00;;;;;;5073549;28;19953;-89
2022/12/10 05:55:23;;;;;;;;;;;6.50;96.00;;;;;;5073654;28;19949;-88
2022/12/10 05:57:49;;;;;;;;;;;6.50;96.10;;;;;;5073369;28;19944;-88
2022/12/10 06:00:14;;;;;;;;;;;6.50;96.00;;;;;;5073691;28;20034;-89
2022/12/10 06:02:40;;;;;;;;;;;6.50;96.00;;;;;;5073618;28;20029;-88
2022/12/10 06:05:05;;;;;;;;;;;6.60;96.00;;;;;;5073574;28;19987;-88
2022/12/10 06:07:31;;;;;;;;;;;6.60;95.90;;;;;;5073490;28;20000;-89
2022/12/10 06:09:56;;;;;;;;;;;6.60;95.80;;;;;;5073540;28;19948;-89
2022/12/10 06:12:22;;;;;;;;;;;6.60;95.80;;;;;;5073493;28;19939;-89
2022/12/10 06:14:47;;;;;;;;;;;6.70;95.70;;;;;;5073324;28;20006;-88
2022/12/10 06:17:13;;;;;;;;;;;6.70;95.70;;;;;;5073361;28;19939;-88
2022/12/10 06:19:38;;;;;;;;;;;6.70;95.60;;;;;;5072978;28;19945;-88
2022/12/10 06:22:04;;;;;;;;;;;6.60;95.40;;;;;;5072257;28;20017;-89
2022/12/10 06:24:30;;;;;;;;;;;6.60;95.70;;;;;;5073260;28;19972;-88
2022/12/10 06:26:55;;;;;;;;;;;6.70;95.70;;;;;;5073247;28;19937;-88
2022/12/10 06:29:21;;;;;;;;;;;6.70;95.60;;;;;;5073254;28;19938;-88
2022/12/10 06:31:46;;;;;;;;;;;6.70;95.50;;;;;;5073262;28;19938;-88
2022/12/10 06:34:12;;;;;;;;;;;6.70;95.60;;;;;;5073084;28;19964;-88
2022/12/10 06:36:37;;;;;;;;;;;6.70;95.60;;;;;;5073169;28;19948;-88
2022/12/10 06:39:03;;;;;;;;;;;6.80;95.60;;;;;;5073154;28;20037;-88
2022/12/10 06:41:28;;;;;;;;;;;6.70;95.50;;;;;;5073096;28;20047;-88
2022/12/10 06:43:58;;;;;;;;;;;6.70;95.50;;;;;;5071968;28;19966;-88
2022/12/10 06:46:24;;;;;;;;;;;6.70;95.50;;;;;;5073074;28;19963;-88
2022/12/10 06:48:49;;;;;;;;;;;6.70;95.50;;;;;;5073045;28;19973;-88
2022/12/10 06:51:17;;;;;;;;;;;6.70;95.60;;;;;;5055169;28;20376;-88
2022/12/10 06:53:42;;;;;;;;;;;6.60;95.70;;;;;;5073028;28;19967;-88
2022/12/10 06:56:12;;;;;;;;;;;6.70;95.70;;;;;;5072966;28;20277;-88
2022/12/10 06:58:40;;;;;;;;;;;6.70;95.70;;;;;;5054884;28;19947;-88
2022/12/10 07:01:06;;;;;;;;;;;6.70;95.80;;;;;;5072911;28;19942;-88
2022/12/10 07:03:32;;;;;;;;;;;6.70;95.80;;;;;;5072855;28;20045;-88
2022/12/10 07:05:58;;;;;;;;;;;6.80;95.80;;;;;;5072873;28;20047;-88
2022/12/10 07:08:24;;;;;;;;;;;6.80;95.70;;;;;;5072860;28;19938;-88
2022/12/10 07:10:49;;;;;;;;;;;6.70;95.50;;;;;;5072578;28;19935;-88
2022/12/10 07:13:15;;;;;;;;;;;6.70;95.70;;;;;;5072961;28;20446;-88
2022/12/10 07:15:40;;;;;;;;;;;6.70;95.80;;;;;;5054817;28;20389;-89
2022/12/10 07:18:06;;;;;;;;;;;6.70;95.80;;;;;;5072793;28;20039;-88
2022/12/10 07:20:31;;;;;;;;;;;6.80;95.70;;;;;;5072509;28;19953;-88
2022/12/10 07:22:57;;;;;;;;;;;6.80;95.70;;;;;;5072644;28;19938;-89
2022/12/10 07:25:22;;;;;;;;;;;6.80;95.80;;;;;;5072583;28;19978;-88
2022/12/10 07:27:48;;;;;;;;;;;6.90;95.80;;;;;;5072655;28;19939;-89
2022/12/10 07:30:13;;;;;;;;;;;6.90;95.80;;;;;;5072556;28;19974;-89
2022/12/10 07:32:39;;;;;;;;;;;6.90;95.70;;;;;;5073333;28;19936;-88
2022/12/10 07:35:04;;;;;;;;;;;6.90;95.70;;;;;;5062081;28;20062;-89
2022/12/10 07:37:30;;;;;;;;;;;6.90;95.50;;;;;;5055590;28;19945;-89
2022/12/10 07:39:56;;;;;;;;;;;7.00;95.70;;;;;;5055440;28;19981;-89
2022/12/10 07:42:21;;;;;;;;;;;7.20;95.40;;;;;;5069598;28;19956;-89
2022/12/10 07:44:48;;;;;;;;;;;7.20;95.30;;;;;;5076288;28;20365;-89
2022/12/10 07:47:13;;;;;;;;;;;7.20;95.20;;;;;;5075903;28;19938;-89
2022/12/10 07:49:39;;;;;;;;;;;7.20;95.20;;;;;;5076071;28;19937;-89
2022/12/10 07:52:04;;;;;;;;;;;7.20;95.10;;;;;;5076037;28;20362;-89
2022/12/10 07:54:30;;;;;;;;;;;7.30;95.10;;;;;;5075914;28;20024;-89
2022/12/10 07:56:55;;;;;;;;;;;7.20;94.90;;;;;;5076042;28;20343;-89
2022/12/10 07:59:21;;;;;;;;;;;7.30;94.80;;;;;;5076003;28;19963;-89
2022/12/10 08:01:47;;;;;;;;;;;7.30;94.80;;;;;;5075956;28;19938;-89
2022/12/10 08:04:13;;;;;;;;;;;7.30;94.70;;;;;;5075923;28;19942;-89
2022/12/10 08:06:38;;;;;;;;;;;7.30;94.90;;;;;;5075902;28;19983;-89
2022/12/10 08:09:04;;;;;;;;;;;7.30;95.10;;;;;;5075813;28;19936;-89
2022/12/10 08:11:29;;;;;;;;;;;7.40;95.20;;;;;;5075474;28;19945;-87
2022/12/10 08:13:55;;;;;;;;;;;7.50;95.20;;;;;;5075450;28;20015;-88
2022/12/10 08:16:27;;;;;;;;;;;7.50;95.10;;;;;;5075315;28;20437;-88
2022/12/10 08:18:54;;;;;;;;;;;7.40;95.10;;;;;;5055590;28;19936;-88
2022/12/10 08:21:21;;;;;;;;;;;7.40;95.10;;;;;;5055414;28;19977;-88
2022/12/10 08:23:47;;;;;;;;;;;7.30;95.20;;;;;;5055582;28;19935;-89
2022/12/10 08:26:14;;;;;;;;;;;7.20;95.10;;;;;;5021137;28;19954;-89
2022/12/10 08:28:40;;;;;;;;;;;7.20;95.50;;;;;;5055394;28;19981;-89
2022/12/10 08:31:07;;;;;;;;;;;7.40;95.50;;;;;;5055405;28;19970;-89
2022/12/10 08:33:34;;;;;;;;;;;7.50;95.40;;;;;;5055277;28;19961;-89
2022/12/10 08:35:59;;;;;;;;;;;7.60;95.10;;;;;;5055329;28;20033;-89
2022/12/10 08:38:25;;;;;;;;;;;7.70;94.80;;;;;;5055274;28;19982;-89
2022/12/10 08:40:51;;;;;;;;;;;7.70;94.80;;;;;;5058079;28;20401;-89
2022/12/10 08:43:16;;;;;;;;;;;7.70;94.70;;;;;;5057214;28;19974;-89
2022/12/10 08:45:42;;;;;;;;;;;7.70;94.70;;;;;;5074365;28;19942;-89
2022/12/10 08:48:07;;;;;;;;;;;7.70;94.70;;;;;;5075063;28;20461;-89
2022/12/10 08:50:33;;;;;;;;;;;7.70;94.70;;;;;;5075104;28;19940;-89
2022/12/10 08:52:59;;;;;;;;;;;7.70;94.60;;;;;;5075103;28;20401;-90
2022/12/10 08:55:25;;;;;;;;;;;7.80;94.70;;;;;;5074953;28;19945;-89
2022/12/10 08:57:50;;;;;;;;;;;8.10;94.60;;;;;;5074860;28;19938;-89
2022/12/10 09:00:16;;;;;;;;;;;8.20;94.40;;;;;;5073960;28;19949;-89
2022/12/10 09:02:41;;;;;;;;;;;8.30;94.40;;;;;;5074791;28;19935;-89
2022/12/10 09:05:07;;;;;;;;;;;8.40;94.50;;;;;;5074790;28;19942;-89
2022/12/10 09:07:33;;;;;;;;;;;8.40;93.40;;;;;;5074687;28;20404;-89
2022/12/10 09:09:58;;;;;;;;;;;8.40;92.80;;;;;;5074604;28;19943;-90
2022/12/10 09:12:24;;;;;;;;;;;8.40;92.80;;;;;;5073847;28;19946;-90
2022/12/10 09:14:49;;;;;;;;;;;8.40;92.80;;;;;;5074505;28;19963;-89
2022/12/10 09:17:15;;;;;;;;;;;8.30;93.10;;;;;;5074556;28;19936;-89
2022/12/10 09:19:40;;;;;;;;;;;8.30;93.20;;;;;;5074418;28;19937;-90
2022/12/10 09:22:06;;;;;;;;;;;8.30;93.30;;;;;;5074246;28;19975;-89
2022/12/10 09:24:32;;;;;;;;;;;8.30;93.30;;;;;;5074583;28;20061;-89
2022/12/10 09:26:57;;;;;;;;;;;8.30;93.50;;;;;;5074556;28;20409;-89
2022/12/10 09:29:23;;;;;;;;;;;8.40;93.60;;;;;;5074127;28;19937;-89
2022/12/10 09:31:52;;;;;;;;;;;8.40;93.70;;;;;;5074203;28;19945;-88
2022/12/10 09:34:18;;;;;;;;;;;8.70;93.30;;;;;;5073971;28;20437;-88
2022/12/10 09:36:43;;;;;;;;;;;8.70;92.50;;;;;;5074121;28;19938;-89
2022/12/10 09:39:09;;;;;;;;;;;8.70;92.30;;;;;;5074058;28;19955;-89
2022/12/10 09:41:35;;;;;;;;;;;8.70;92.10;;;;;;5073783;28;19950;-89
2022/12/10 09:44:08;;;;;;;;;;;8.60;92.50;;;;;;5073933;28;20349;-89
2022/12/10 09:46:54;;;;;;;;;;;8.60;92.60;;;;;;5055982;28;20291;-90
2022/12/10 09:49:20;;;;;;;;;;;8.70;92.70;;;;;;5073835;28;19950;-89
2022/12/10 09:51:46;;;;;;;;;;;8.70;92.50;;;;;;5073725;28;19949;-89
2022/12/10 09:54:17;;;;;;;;;;;8.90;92.70;;;;;;5073563;28;19954;-89
2022/12/10 09:56:43;;;;;;;;;;;9.10;92.30;;;;;;5073724;28;19943;-89
2022/12/10 09:59:30;;;;;;;;;;;9.30;91.70;;;;;;5073695;28;19945;-89
2022/12/10 10:02:02;;;;;;;;;;;9.30;91.70;;;;;;5073513;28;20381;-89
2022/12/10 10:04:28;;;;;;;;;;;9.60;91.40;;;;;;5073604;28;20031;-89
2022/12/10 10:06:53;;;;;;;;;;;9.70;89.60;;;;;;5073552;28;19983;-88
2022/12/10 10:09:19;;;;;;;;;;;9.50;90.10;;;;;;5073541;28;19941;-89
2022/12/10 10:11:45;;;;;;;;;;;9.40;90.80;;;;;;5073164;28;19949;-89
2022/12/10 10:14:22;;;;;;;;;;;9.40;90.80;;;;;;5073366;28;19966;-89
2022/12/10 10:16:50;;;;;;;;;;;9.30;91.00;;;;;;5073440;28;20207;-89
2022/12/10 10:19:17;;;;;;;;;;;9.40;91.40;;;;;;5073427;28;19965;-89
2022/12/10 10:21:44;;;;;;;;;;;9.50;91.20;;;;;;5080336;22;19986;-89
2022/12/10 10:24:30;;;;;;;;;;;9.60;91.20;;;;;;5073288;28;20351;-89
2022/12/10 10:27:01;;;;;;;;;;;9.90;90.80;;;;;;5059142;28;20501;-89
2022/12/10 10:29:26;;;;;;;;;;;10.10;89.90;;;;;;5055279;28;19944;-88
2022/12/10 10:32:11;;;;;;;;;;;10.30;88.90;;;;;;5073206;28;19941;-89
2022/12/10 10:34:38;;;;;;;;;;;10.30;88.60;;;;;;5073109;28;20406;-89
2022/12/10 10:37:04;;;;;;;;;;;10.40;88.50;;;;;;5073163;28;19944;-88
2022/12/10 10:39:30;;;;;;;;;;;10.20;88.80;;;;;;5073161;28;19939;-89
2022/12/10 10:41:57;;;;;;;;;;;10.10;89.30;;;;;;5088847;28;19947;-88
2022/12/10 10:44:25;;;;;;;;;;;10.00;89.70;;;;;;5092943;28;19948;-89
2022/12/10 10:46:51;;;;;;;;;;;10.00;89.50;;;;;;5093262;28;19946;-88
2022/12/10 10:49:27;;;;;;;;;;;10.10;89.50;;;;;;5093496;28;19987;-89
2022/12/10 10:51:57;;;;;;;;;;;10.10;89.10;;;;;;5093356;28;20000;-89
2022/12/10 10:54:35;;;;;;;;;;;10.10;88.90;;;;;;5092969;28;19968;-89
2022/12/10 10:57:02;;;;;;;;;;;10.20;89.30;;;;;;5093409;28;19946;-89
2022/12/10 10:59:36;;;;;;;;;;;10.40;89.40;;;;;;5093096;28;20483;-89
2022/12/10 11:02:22;;;;;;;;;;;10.40;88.30;;;;;;5093038;28;19971;-89
2022/12/10 11:04:51;;;;;;;;;;;10.60;88.30;;;;;;5092222;28;19949;-89
2022/12/10 11:07:20;;;;;;;;;;;10.70;88.20;;;;;;5093551;28;19977;-89
2022/12/10 11:09:46;;;;;;;;;;;10.80;87.60;;;;;;5097232;28;19934;-89
2022/12/10 11:12:29;;;;;;;;;;;10.90;87.90;;;;;;5078921;28;19950;-89
2022/12/10 11:14:55;;;;;;;;;;;10.90;87.30;;;;;;5076788;28;20027;-89
2022/12/10 11:17:21;;;;;;;;;;;10.90;86.80;;;;;;5077065;28;20062;-89
2022/12/10 11:19:58;;;;;;;;;;;11.00;86.90;;;;;;5076730;28;19969;-89
2022/12/10 11:22:26;;;;;;;;;;;10.90;85.80;;;;;;5076528;28;19983;-89
2022/12/10 11:24:52;;;;;;;;;;;11.10;85.70;;;;;;5076643;28;19942;-89
2022/12/10 11:27:36;;;;;;;;;;;11.30;86.40;;;;;;5077118;28;19999;-89
2022/12/10 11:30:04;;;;;;;;;;;11.40;86.60;;;;;;5076539;28;19937;-89
2022/12/10 11:32:30;;;;;;;;;;;11.70;85.40;;;;;;5058525;28;19991;-89
2022/12/10 11:35:14;;;;;;;;;;;11.80;84.00;;;;;;5091563;28;19959;-89
2022/12/10 11:38:00;;;;;;;;;;;11.70;84.70;;;;;;5096565;28;19950;-89
2022/12/10 11:40:34;;;;;;;;;;;11.40;84.10;;;;;;5067899;28;19941;-89
2022/12/10 11:43:18;;;;;;;;;;;11.20;84.50;;;;;;5096501;28;19986;-89
2022/12/10 11:45:59;;;;;;;;;;;11.30;85.30;;;;;;5096485;28;19939;-89
2022/12/10 11:48:34;;;;;;;;;;;11.30;85.50;;;;;;5096334;28;19940;-89
2022/12/10 11:51:04;;;;;;;;;;;11.40;86.10;;;;;;5096420;28;19987;-89
2022/12/10 11:53:38;;;;;;;;;;;11.50;85.50;;;;;;5096394;28;19969;-89
2022/12/10 11:56:04;;;;;;;;;;;11.50;84.50;;;;;;5078075;28;19943;-89
2022/12/10 11:58:29;;;;;;;;;;;11.60;84.90;;;;;;5096286;28;19964;-89
2022/12/10 12:01:10;;;;;;;;;;;11.80;84.70;;;;;;5095918;28;19937;-89
2022/12/10 12:03:39;;;;;;;;;;;12.00;83.10;;;;;;5091946;28;19975;-90
2022/12/10 12:06:15;;;;;;;;;;;12.10;82.60;;;;;;5074786;28;19953;-90
2022/12/10 12:08:57;;;;;;;;;;;12.10;82.00;;;;;;5057803;28;19987;-89
2022/12/10 12:11:26;;;;;;;;;;;12.00;81.70;;;;;;5075574;28;19947;-89
2022/12/10 12:14:18;;;;;;;;;;;12.00;82.20;;;;;;5075421;28;20329;-89
2022/12/10 12:16:47;;;;;;;;;;;12.00;82.20;;;;;;5055422;28;20035;-89
2022/12/10 12:19:22;;;;;;;;;;;12.10;82.20;;;;;;5074463;28;19964;-89
2022/12/10 12:21:49;;;;;;;;;;;12.30;81.40;;;;;;5075388;28;20006;-89
2022/12/10 12:24:33;;;;;;;;;;;12.10;81.80;;;;;;5075271;28;19979;-89
2022/12/10 12:27:02;;;;;;;;;;;12.00;82.30;;;;;;5075464;28;19941;-89
2022/12/10 12:29:30;;;;;;;;;;;11.80;82.80;;;;;;5075412;28;20410;-89
2022/12/10 12:31:59;;;;;;;;;;;11.70;82.80;;;;;;5075572;28;19945;-89
2022/12/10 12:34:43;;;;;;;;;;;11.60;83.80;;;;;;5075607;28;19966;-89
2022/12/10 12:37:12;;;;;;;;;;;11.50;83.80;;;;;;5075274;28;20036;-89
2022/12/10 12:39:48;;;;;;;;;;;11.50;83.90;;;;;;5075199;28;19961;-89
2022/12/10 12:42:18;;;;;;;;;;;11.40;83.80;;;;;;5075164;28;20384;-89
2022/12/10 12:44:47;;;;;;;;;;;11.40;83.70;;;;;;5057208;28;19944;-89
2022/12/10 12:47:15;;;;;;;;;;;11.40;84.10;;;;;;5075110;28;19945;-89
2022/12/10 12:49:41;;;;;;;;;;;11.30;85.10;;;;;;5075077;28;19949;-89
2022/12/10 12:52:10;;;;;;;;;;;11.30;85.50;;;;;;5074907;28;20045;-89
2022/12/10 12:54:36;;;;;;;;;;;11.30;85.80;;;;;;5074806;28;20005;-89
2022/12/10 12:57:01;;;;;;;;;;;11.30;85.70;;;;;;5074949;28;19973;-89
2022/12/10 12:59:50;;;;;;;;;;;11.40;85.20;;;;;;5074885;28;19941;-88
2022/12/10 13:02:34;;;;;;;;;;;11.40;85.50;;;;;;5072879;28;20430;-89
2022/12/10 13:05:00;;;;;;;;;;;11.20;85.60;;;;;;5094644;28;19946;-88
2022/12/10 13:07:27;;;;;;;;;;;11.10;85.70;;;;;;5094938;28;19945;-89
2022/12/10 13:10:07;;;;;;;;;;;11.00;87.30;;;;;;5094888;28;20065;-89
2022/12/10 13:12:45;;;;;;;;;;;11.00;88.10;;;;;;5094835;28;19960;-89
2022/12/10 13:15:16;;;;;;;;;;;10.90;88.10;;;;;;5094727;28;19967;-88
2022/12/10 13:18:00;;;;;;;;;;;10.80;88.80;;;;;;5076569;28;19946;-88
2022/12/10 13:20:26;;;;;;;;;;;10.60;89.10;;;;;;5094492;28;19937;-89
2022/12/10 13:23:02;;;;;;;;;;;10.50;90.30;;;;;;5094854;28;19951;-89
2022/12/10 13:25:57;;;;;;;;;;;10.50;90.60;;;;;;5094603;28;20399;-88
2022/12/10 13:28:27;;;;;;;;;;;10.40;90.60;;;;;;5094809;28;20055;-89
2022/12/10 13:31:11;;;;;;;;;;;10.30;90.80;;;;;;5094114;28;20023;-88
2022/12/10 13:34:09;;;;;;;;;;;10.30;91.20;;;;;;5075975;28;19962;-88
2022/12/10 13:36:34;;;;;;;;;;;10.20;91.20;;;;;;5040251;28;19976;-89
2022/12/10 13:39:03;;;;;;;;;;;10.20;91.60;;;;;;5074027;28;19945;-88
2022/12/10 13:44:36;;;;;;;;;;;10.20;91.80;;;;;;5074041;28;19948;-89
2022/12/10 13:47:22;;;;;;;;;;;10.10;91.60;;;;;;5073918;28;19945;-89
2022/12/10 13:49:52;;;;;;;;;;;10.00;91.60;;;;;;5074094;28;19948;-89
2022/12/10 13:52:21;;;;;;;;;;;10.00;91.60;;;;;;5073816;28;19955;-89
2022/12/10 13:54:46;;;;;;;;;;;9.90;91.70;;;;;;5073634;28;20006;-88
2022/12/10 13:57:18;;;;;;;;;;;9.90;92.00;;;;;;5073983;28;19946;-89
2022/12/10 14:00:04;;;;;;;;;;;9.90;92.00;;;;;;5055748;28;19952;-89
2022/12/10 14:02:30;;;;;;;;;;;9.90;92.10;;;;;;5081827;28;20463;-89
2022/12/10 14:04:55;;;;;;;;;;;9.90;92.10;;;;;;5093864;28;19935;-89
2022/12/10 14:07:21;;;;;;;;;;;9.90;92.30;;;;;;5093833;28;19938;-89
2022/12/10 14:09:51;;;;;;;;;;;9.80;92.70;;;;;;5093769;28;20051;-89
2022/12/10 14:12:31;;;;;;;;;;;9.60;92.90;;;;;;5093730;28;19946;-88
2022/12/10 14:15:01;;;;;;;;;;;9.40;93.40;;;;;;5093628;28;19962;-89
2022/12/10 14:17:40;;;;;;;;;;;9.30;93.70;;;;;;5093602;28;20463;-89
2022/12/10 14:20:08;;;;;;;;;;;9.20;94.00;;;;;;5093601;28;19938;-89
2022/12/10 14:22:36;;;;;;;;;;;9.10;94.20;;;;;;5093392;28;19974;-88
2022/12/10 14:25:06;;;;;;;;;;;9.00;94.40;;;;;;5093536;28;19938;-89
2022/12/10 14:27:32;;;;;;;;;;;9.10;94.60;;;;;;5093491;28;20397;-89
2022/12/10 14:29:59;;;;;;;;;;;9.10;94.70;;;;;;5093506;28;19939;-89
2022/12/10 14:32:32;;;;;;;;;;;9.10;94.80;;;;;;5082896;28;19966;-89
2022/12/10 14:34:58;;;;;;;;;;;9.00;94.80;;;;;;5073079;28;19971;-89
2022/12/10 14:37:29;;;;;;;;;;;9.00;94.80;;;;;;5073148;28;19938;-89
2022/12/10 14:39:55;;;;;;;;;;;9.00;94.90;;;;;;5073179;28;20025;-89
2022/12/10 14:42:21;;;;;;;;;;;9.00;94.80;;;;;;5078104;28;19977;-89
2022/12/10 14:44:56;;;;;;;;;;;8.90;94.90;;;;;;5093283;28;20006;-89